createdAt,value
2019-02-07T00:00:50.645Z,66.90
2019-02-07T00:03:20.106Z,66.20
2019-02-07T00:05:49.382Z,66.00
2019-02-07T00:08:38.184Z,65.70
2019-02-07T00:11:07.541Z,65.80
2019-02-07T00:13:36.694Z,66.00
2019-02-07T00:16:05.962Z,65.80
2019-02-07T00:18:35.133Z,66.50
2019-02-07T00:21:04.662Z,66.00
2019-02-07T00:23:34.044Z,66.60
2019-02-07T00:26:03.222Z,65.70
2019-02-07T00:28:32.493Z,66.30
2019-02-07T00:31:01.707Z,65.90
2019-02-07T00:33:30.983Z,66.40
2019-02-07T00:36:00.161Z,66.40
2019-02-07T00:38:29.676Z,66.30
2019-02-07T00:40:58.924Z,66.10
2019-02-07T00:43:28.240Z,67.10
2019-02-07T00:45:57.481Z,66.40
2019-02-07T00:48:26.649Z,66.10
2019-02-07T00:50:55.928Z,66.90
2019-02-07T00:53:25.120Z,66.80
2019-02-07T00:55:54.377Z,66.90
2019-02-07T00:58:23.555Z,66.50
2019-02-07T01:00:52.804Z,67.10
2019-02-07T01:03:22.459Z,67.60
2019-02-07T01:05:51.678Z,67.70
2019-02-07T01:08:20.857Z,67.90
2019-02-07T01:10:50.366Z,67.70
2019-02-07T01:13:19.585Z,68.20
2019-02-07T01:15:48.823Z,68.20
2019-02-07T01:18:18.559Z,68.40
2019-02-07T01:20:47.706Z,68.50
2019-02-07T01:23:17.296Z,68.00
2019-02-07T01:25:46.439Z,68.30
2019-02-07T01:28:15.724Z,68.60
2019-02-07T01:30:45.001Z,68.40
2019-02-07T01:33:14.152Z,68.60
2019-02-07T01:35:43.318Z,68.40
2019-02-07T01:38:12.464Z,68.30
2019-02-07T01:40:41.701Z,68.20
2019-02-07T01:43:10.839Z,68.10
2019-02-07T01:45:40.074Z,67.50
2019-02-07T01:48:09.280Z,67.20
2019-02-07T01:50:38.456Z,67.60
2019-02-07T01:53:08.368Z,68.90
2019-02-07T01:55:37.537Z,68.20
2019-02-07T01:58:06.705Z,68.70
2019-02-07T02:00:35.960Z,67.80
2019-02-07T02:03:05.089Z,67.80
2019-02-07T02:05:34.231Z,68.30
2019-02-07T02:08:03.383Z,68.30
2019-02-07T02:10:32.609Z,68.30
2019-02-07T02:13:01.800Z,68.40
2019-02-07T02:15:30.960Z,67.90
2019-02-07T02:18:00.100Z,67.70
2019-02-07T02:20:29.720Z,67.90
2019-02-07T02:22:58.887Z,67.80
2019-02-07T02:25:28.034Z,67.70
2019-02-07T02:27:57.220Z,68.50
2019-02-07T02:30:31.592Z,68.40
2019-02-07T02:33:01.332Z,68.70
2019-02-07T02:35:30.482Z,68.30
2019-02-07T02:37:59.638Z,68.40
2019-02-07T02:40:28.844Z,68.50
2019-02-07T02:42:58.134Z,68.40
2019-02-07T02:45:37.136Z,68.80
2019-02-07T02:47:58.998Z,68.60
2019-02-07T02:50:28.216Z,69.10
2019-02-07T02:52:57.472Z,69.00
2019-02-07T02:55:31.133Z,68.60
2019-02-07T02:58:00.297Z,68.50
2019-02-07T03:00:54.673Z,69.20
2019-02-07T03:03:30.185Z,68.30
2019-02-07T03:06:10.371Z,69.30
2019-02-07T03:09:03.065Z,69.00
2019-02-07T03:11:49.884Z,68.90
2019-02-07T03:14:37.152Z,69.30
2019-02-07T03:17:24.139Z,69.60
2019-02-07T03:20:18.410Z,69.40
2019-02-07T03:23:15.659Z,69.20
2019-02-07T03:26:18.980Z,69.80
2019-02-07T03:29:11.525Z,69.60
2019-02-07T03:31:58.682Z,69.40
2019-02-07T03:34:44.993Z,70.50
2019-02-07T03:37:36.081Z,69.90
2019-02-07T03:40:25.340Z,69.20
2019-02-07T03:43:22.489Z,69.50
2019-02-07T03:46:19.957Z,70.30
2019-02-07T03:49:08.825Z,69.90
2019-02-07T03:52:12.138Z,70.40
2019-02-07T03:54:59.277Z,69.70
2019-02-07T03:57:50.016Z,69.40
2019-02-07T04:00:43.481Z,69.60
2019-02-07T04:03:30.511Z,69.40
2019-02-07T04:06:21.618Z,69.80
2019-02-07T04:09:13.527Z,69.60
2019-02-07T04:12:00.637Z,69.50
2019-02-07T04:14:52.076Z,69.30
2019-02-07T04:17:32.634Z,69.20
2019-02-07T04:20:24.687Z,69.40
2019-02-07T04:23:11.762Z,68.90
2019-02-07T04:26:18.543Z,69.20
2019-02-07T04:29:09.317Z,69.80
2019-02-07T04:31:50.559Z,69.80
2019-02-07T04:34:38.747Z,70.10
2019-02-07T04:37:25.661Z,69.80
2019-02-07T04:40:03.817Z,70.60
2019-02-07T04:43:04.271Z,70.40
2019-02-07T04:46:07.533Z,70.10
2019-02-07T04:48:54.894Z,70.40
2019-02-07T04:51:39.632Z,70.10
2019-02-07T04:54:21.062Z,69.30
2019-02-07T04:57:03.789Z,69.60
2019-02-07T04:59:55.034Z,69.70
2019-02-07T05:02:41.062Z,70.00
2019-02-07T05:05:32.893Z,69.30
2019-02-07T05:08:20.109Z,69.60
2019-02-07T05:11:20.487Z,69.40
2019-02-07T05:14:15.659Z,70.00
2019-02-07T05:16:52.399Z,70.30
2019-02-07T05:19:37.918Z,70.40
2019-02-07T05:22:38.371Z,69.80
2019-02-07T05:25:42.701Z,69.80
2019-02-07T05:28:37.964Z,70.10
2019-02-07T05:31:28.150Z,70.10
2019-02-07T05:34:28.372Z,70.10
2019-02-07T05:37:16.590Z,69.60
2019-02-07T05:40:00.019Z,70.00
2019-02-07T05:43:07.669Z,69.30
2019-02-07T05:45:54.631Z,69.10
2019-02-07T05:48:45.846Z,69.00
2019-02-07T05:51:35.539Z,68.90
2019-02-07T05:54:23.078Z,68.80
2019-02-07T05:57:14.332Z,68.90
2019-02-07T06:00:14.898Z,69.20
2019-02-07T06:03:01.116Z,69.50
2019-02-07T06:05:58.500Z,70.00
2019-02-07T06:08:45.216Z,70.00
2019-02-07T06:11:33.793Z,69.90
2019-02-07T06:14:20.680Z,69.40
2019-02-07T06:17:06.324Z,69.60
2019-02-07T06:20:03.532Z,69.70
2019-02-07T06:22:40.052Z,70.10
2019-02-07T06:25:24.091Z,70.50
2019-02-07T06:28:10.924Z,70.70
2019-02-07T06:30:58.560Z,70.80
2019-02-07T06:33:52.771Z,70.60
2019-02-07T06:36:43.741Z,71.10
2019-02-07T06:39:22.132Z,71.10
2019-02-07T06:42:09.347Z,70.60
2019-02-07T06:44:57.563Z,70.10
2019-02-07T06:47:44.472Z,70.20
2019-02-07T06:50:39.048Z,70.30
2019-02-07T06:53:19.692Z,70.20
2019-02-07T06:56:06.732Z,70.10
2019-02-07T06:58:49.681Z,69.50
2019-02-07T07:01:47.139Z,69.80
2019-02-07T07:04:35.320Z,70.20
2019-02-07T07:07:23.744Z,69.80
2019-02-07T07:10:03.726Z,69.40
2019-02-07T07:12:51.972Z,69.90
2019-02-07T07:15:52.416Z,69.20
2019-02-07T07:18:40.809Z,69.30
2019-02-07T07:21:27.953Z,69.00
2019-02-07T07:24:26.371Z,68.20
2019-02-07T07:27:20.811Z,68.00
2019-02-07T07:30:07.585Z,68.60
2019-02-07T07:32:56.273Z,67.60
2019-02-07T07:35:50.515Z,67.60
2019-02-07T07:38:38.224Z,67.20
2019-02-07T07:41:25.221Z,66.00
2019-02-07T07:44:22.653Z,64.80
2019-02-07T07:47:35.801Z,64.30
2019-02-07T07:50:25.907Z,64.60
2019-02-07T07:53:05.845Z,64.30
2019-02-07T07:55:56.860Z,64.50
2019-02-07T07:58:55.369Z,63.20
2019-02-07T08:02:01.756Z,63.60
2019-02-07T08:05:01.835Z,64.80
2019-02-07T08:08:08.280Z,66.00
2019-02-07T08:10:55.001Z,66.30
2019-02-07T08:13:52.993Z,66.00
2019-02-07T08:16:40.147Z,65.30
2019-02-07T08:19:31.352Z,65.40
2019-02-07T08:22:20.080Z,63.40
2019-02-07T08:25:08.108Z,64.70
2019-02-07T08:27:56.372Z,66.20
2019-02-07T08:30:43.900Z,64.80
2019-02-07T08:33:41.155Z,64.00
2019-02-07T08:36:32.201Z,61.20
2019-02-07T08:39:18.883Z,60.70
2019-02-07T08:42:16.251Z,61.20
2019-02-07T08:45:03.233Z,61.40
2019-02-07T08:47:58.554Z,60.50
2019-02-07T08:50:37.885Z,60.20
2019-02-07T08:53:17.542Z,60.60
2019-02-07T08:56:04.339Z,59.80
2019-02-07T08:58:55.433Z,59.60
2019-02-07T09:01:42.165Z,60.50
2019-02-07T09:04:42.675Z,60.70
2019-02-07T09:07:49.600Z,60.60
2019-02-07T09:10:30.695Z,59.90
2019-02-07T09:13:17.740Z,59.30
2019-02-07T09:15:56.064Z,59.10
2019-02-07T09:18:49.656Z,60.10
2019-02-07T09:21:36.536Z,60.10
2019-02-07T09:24:39.996Z,59.40
2019-02-07T09:27:39.505Z,59.80
2019-02-07T09:30:48.860Z,59.70
2019-02-07T09:33:37.028Z,59.60
2019-02-07T09:36:25.312Z,59.00
2019-02-07T09:39:12.118Z,59.10
2019-02-07T09:42:06.179Z,59.10
2019-02-07T09:45:00.768Z,59.50
2019-02-07T09:47:55.026Z,60.00
2019-02-07T09:50:36.587Z,60.40
2019-02-07T09:53:24.804Z,60.10
2019-02-07T09:56:16.974Z,59.60
2019-02-07T09:59:03.344Z,59.90
2019-02-07T10:02:06.947Z,60.60
2019-02-07T10:04:55.415Z,60.90
2019-02-07T10:08:02.028Z,61.20
2019-02-07T10:10:59.335Z,61.70
2019-02-07T10:13:46.540Z,61.90
2019-02-07T10:16:53.074Z,61.50
2019-02-07T10:20:00.453Z,61.50
2019-02-07T10:22:41.683Z,60.90
2019-02-07T10:25:28.529Z,61.80
2019-02-07T10:28:19.904Z,62.40
2019-02-07T10:31:08.125Z,62.70
2019-02-07T10:34:06.345Z,63.30
2019-02-07T10:36:46.729Z,64.70
2019-02-07T10:39:39.472Z,64.40
2019-02-07T10:42:28.174Z,64.40
2019-02-07T10:45:19.396Z,64.70
2019-02-07T10:48:13.629Z,65.30
2019-02-07T10:51:00.682Z,64.00
2019-02-07T10:53:46.496Z,64.60
2019-02-07T10:56:25.039Z,66.70
2019-02-07T10:59:22.993Z,66.90
2019-02-07T11:02:29.340Z,67.20
2019-02-07T11:05:35.846Z,67.70
2019-02-07T11:08:24.325Z,67.20
2019-02-07T11:11:21.711Z,67.90
2019-02-07T11:14:08.620Z,69.50
2019-02-07T11:16:55.840Z,71.10
2019-02-07T11:19:40.690Z,70.80
2019-02-07T11:22:28.077Z,72.50
2019-02-07T11:25:15.224Z,72.50
2019-02-07T11:27:54.091Z,73.60
2019-02-07T11:30:41.054Z,73.50
2019-02-07T11:33:25.628Z,74.30
2019-02-07T11:36:10.980Z,74.90
2019-02-07T11:39:17.300Z,74.80
2019-02-07T11:42:06.556Z,75.70
2019-02-07T11:44:44.183Z,77.10
2019-02-07T11:47:35.497Z,77.00
2019-02-07T11:50:27.772Z,77.30
2019-02-07T11:53:18.519Z,76.90
2019-02-07T11:56:10.776Z,77.00
2019-02-07T11:58:57.829Z,78.10
2019-02-07T12:01:47.820Z,76.80
2019-02-07T12:04:26.622Z,77.30
2019-02-07T12:07:13.713Z,78.10
2019-02-07T12:09:52.587Z,79.40
2019-02-07T12:12:43.799Z,79.00
2019-02-07T12:15:32.345Z,78.90
2019-02-07T12:18:16.493Z,80.00
2019-02-07T12:21:04.745Z,79.60
2019-02-07T12:23:58.949Z,80.10
2019-02-07T12:26:50.936Z,81.80
2019-02-07T12:29:40.441Z,82.30
2019-02-07T12:32:28.760Z,82.10
2019-02-07T12:35:20.153Z,81.60
2019-02-07T12:38:07.552Z,82.10
2019-02-07T12:40:58.493Z,81.80
2019-02-07T12:43:56.036Z,81.90
2019-02-07T12:47:02.815Z,82.40
2019-02-07T12:49:49.631Z,83.40
2019-02-07T12:52:36.510Z,83.20
2019-02-07T12:55:35.264Z,83.70
2019-02-07T12:58:22.347Z,83.80
2019-02-07T13:01:25.847Z,83.40
2019-02-07T13:04:05.624Z,84.00
2019-02-07T13:06:59.629Z,83.80
2019-02-07T13:09:46.563Z,83.80
2019-02-07T13:12:37.805Z,83.40
2019-02-07T13:15:26.828Z,83.90
2019-02-07T13:18:14.502Z,84.40
2019-02-07T13:20:51.649Z,84.50
2019-02-07T13:23:38.802Z,85.00
2019-02-07T13:26:45.439Z,85.10
2019-02-07T13:29:32.076Z,85.60
2019-02-07T13:32:23.705Z,85.80
2019-02-07T13:35:04.044Z,85.60
2019-02-07T13:37:59.775Z,85.90
2019-02-07T13:40:46.641Z,86.00
2019-02-07T13:43:53.227Z,86.80
2019-02-07T13:46:59.718Z,87.00
2019-02-07T13:49:54.158Z,86.90
2019-02-07T13:52:57.483Z,87.10
2019-02-07T13:55:55.138Z,87.30
2019-02-07T13:58:43.428Z,87.50
2019-02-07T14:01:28.872Z,87.40
2019-02-07T14:04:13.917Z,87.00
2019-02-07T14:07:02.165Z,86.40
2019-02-07T14:10:09.330Z,86.70
2019-02-07T14:13:00.600Z,86.40
2019-02-07T14:15:47.773Z,85.90
2019-02-07T14:18:35.995Z,86.00
2019-02-07T14:21:30.100Z,85.50
2019-02-07T14:24:13.044Z,85.30
2019-02-07T14:27:17.069Z,85.30
2019-02-07T14:30:11.235Z,85.50
2019-02-07T14:32:57.064Z,85.20
2019-02-07T14:35:44.320Z,84.80
2019-02-07T14:38:38.568Z,85.10
2019-02-07T14:41:39.025Z,86.00
2019-02-07T14:44:27.233Z,86.00
2019-02-07T14:46:56.576Z,85.80
2019-02-07T14:49:25.800Z,85.20
2019-02-07T14:51:55.441Z,85.70
2019-02-07T14:54:24.620Z,86.80
2019-02-07T14:56:53.960Z,87.10
2019-02-07T14:59:23.128Z,87.50
2019-02-07T15:01:52.423Z,87.50
2019-02-07T15:04:21.755Z,87.80
2019-02-07T15:06:51.467Z,88.50
2019-02-07T15:09:22.026Z,89.20
2019-02-07T15:11:51.176Z,89.30
2019-02-07T15:14:20.350Z,89.00
2019-02-07T15:16:49.560Z,88.70
2019-02-07T15:19:18.821Z,88.40
2019-02-07T15:21:48.563Z,88.00
2019-02-07T15:24:17.853Z,89.10
2019-02-07T15:26:47.197Z,89.30
2019-02-07T15:29:16.353Z,89.80
2019-02-07T15:31:45.756Z,90.10
2019-02-07T15:34:14.922Z,90.60
2019-02-07T15:36:46.768Z,90.80
2019-02-07T15:39:17.532Z,90.60
2019-02-07T15:41:47.010Z,90.80
2019-02-07T15:44:16.571Z,90.80
2019-02-07T15:46:45.906Z,91.20
2019-02-07T15:49:15.377Z,91.00
2019-02-07T15:51:45.445Z,91.00
2019-02-07T15:54:14.582Z,90.60
2019-02-07T15:56:43.756Z,90.10
2019-02-07T15:59:30.572Z,89.50
2019-02-07T16:02:04.153Z,89.20
2019-02-07T16:04:36.433Z,89.40
2019-02-07T16:07:07.605Z,89.70
2019-02-07T16:09:37.009Z,89.60
2019-02-07T16:12:06.484Z,90.10
2019-02-07T16:14:35.629Z,90.20
2019-02-07T16:17:04.927Z,90.20
2019-02-07T16:19:34.351Z,90.40
2019-02-07T16:22:03.708Z,90.40
2019-02-07T16:24:32.948Z,90.50
2019-02-07T16:27:02.195Z,91.10
2019-02-07T16:29:31.597Z,91.00
2019-02-07T16:32:01.199Z,91.60
2019-02-07T16:34:30.367Z,91.40
2019-02-07T16:36:59.699Z,91.90
2019-02-07T16:39:28.979Z,91.60
2019-02-07T16:42:05.756Z,91.80
2019-02-07T16:44:29.337Z,91.70
2019-02-07T16:46:58.505Z,91.80
2019-02-07T16:49:28.034Z,91.90
2019-02-07T16:51:57.197Z,91.90
2019-02-07T16:54:26.508Z,91.60
2019-02-07T16:56:55.723Z,91.80
2019-02-07T16:59:25.005Z,91.50
2019-02-07T17:01:54.277Z,91.70
2019-02-07T17:04:23.460Z,91.50
2019-02-07T17:06:52.633Z,91.30
2019-02-07T17:09:30.588Z,91.40
2019-02-07T17:12:00.986Z,91.80
2019-02-07T17:14:30.846Z,91.80
2019-02-07T17:17:00.022Z,91.80
2019-02-07T17:19:29.204Z,92.00
2019-02-07T17:21:58.444Z,91.90
2019-02-07T17:24:27.672Z,91.60
2019-02-07T17:26:56.827Z,91.60
2019-02-07T17:29:26.663Z,91.60
2019-02-07T17:31:56.148Z,91.70
2019-02-07T17:34:25.370Z,91.60
2019-02-07T17:36:54.637Z,91.60
2019-02-07T17:39:23.830Z,91.40
2019-02-07T17:41:53.029Z,91.60
2019-02-07T17:44:22.670Z,91.70
2019-02-07T17:46:52.036Z,91.80
2019-02-07T17:49:21.360Z,91.90
2019-02-07T17:51:50.625Z,91.80
2019-02-07T17:54:19.825Z,91.90
2019-02-07T17:56:49.008Z,91.70
2019-02-07T17:59:18.632Z,91.60
2019-02-07T18:01:47.889Z,91.60
2019-02-07T18:04:17.328Z,91.70
2019-02-07T18:06:46.956Z,91.70
2019-02-07T18:09:16.627Z,91.60
2019-02-07T18:11:45.913Z,91.60
2019-02-07T18:14:15.841Z,92.20
2019-02-07T18:16:45.271Z,91.80
2019-02-07T18:19:14.505Z,91.40
2019-02-07T18:21:43.787Z,91.20
2019-02-07T18:24:12.964Z,91.40
2019-02-07T18:26:42.232Z,91.40
2019-02-07T18:29:11.764Z,91.70
2019-02-07T18:31:41.057Z,91.60
2019-02-07T18:34:10.416Z,91.50
2019-02-07T18:36:39.714Z,91.30
2019-02-07T18:39:10.376Z,91.30
2019-02-07T18:41:39.571Z,91.60
2019-02-07T18:44:09.420Z,91.40
2019-02-07T18:46:38.588Z,91.40
2019-02-07T18:49:08.007Z,91.30
2019-02-07T18:51:45.272Z,91.40
2019-02-07T18:54:08.164Z,91.60
2019-02-07T18:56:37.317Z,91.80
2019-02-07T18:59:06.580Z,91.80
2019-02-07T19:01:35.796Z,92.00
2019-02-07T19:04:05.253Z,91.80
2019-02-07T19:06:34.525Z,91.90
2019-02-07T19:09:05.249Z,91.90
2019-02-07T19:11:34.652Z,92.00
2019-02-07T19:14:04.105Z,91.60
2019-02-07T19:16:33.282Z,91.70
2019-02-07T19:19:02.598Z,91.80
2019-02-07T19:21:31.853Z,91.60
2019-02-07T19:24:01.265Z,91.30
2019-02-07T19:26:30.472Z,91.00
2019-02-07T19:28:59.864Z,91.20
2019-02-07T19:31:29.072Z,91.30
2019-02-07T19:33:58.347Z,91.50
2019-02-07T19:36:27.655Z,91.80
2019-02-07T19:38:56.905Z,91.60
2019-02-07T19:41:26.249Z,91.40
2019-02-07T19:43:55.387Z,91.20
2019-02-07T19:46:25.195Z,91.00
2019-02-07T19:48:54.360Z,91.00
2019-02-07T19:51:23.655Z,91.20
2019-02-07T19:53:53.018Z,91.20
2019-02-07T19:56:22.319Z,91.50
2019-02-07T19:58:51.583Z,91.40
2019-02-07T20:01:21.426Z,91.30
2019-02-07T20:03:50.685Z,91.10
2019-02-07T20:06:19.947Z,91.30
2019-02-07T20:08:49.196Z,91.10
2019-02-07T20:11:18.417Z,91.40
2019-02-07T20:13:47.664Z,91.30
2019-02-07T20:16:16.973Z,91.00
2019-02-07T20:18:46.110Z,91.10
2019-02-07T20:21:15.463Z,91.00
2019-02-07T20:23:44.683Z,90.80
2019-02-07T20:26:13.967Z,90.80
2019-02-07T20:28:43.115Z,90.70
2019-02-07T20:31:12.343Z,90.80
2019-02-07T20:33:41.584Z,90.50
2019-02-07T20:36:10.745Z,90.60
2019-02-07T20:38:39.999Z,90.70
2019-02-07T20:41:09.254Z,90.60
2019-02-07T20:43:38.501Z,91.10
2019-02-07T20:46:07.671Z,90.60
2019-02-07T20:48:37.030Z,90.30
2019-02-07T20:51:06.168Z,90.20
2019-02-07T20:53:35.432Z,90.10
2019-02-07T20:56:05.389Z,90.70
2019-02-07T20:58:34.605Z,91.00
2019-02-07T21:01:04.069Z,90.90
2019-02-07T21:03:33.340Z,90.70
2019-02-07T21:06:02.508Z,90.50
2019-02-07T21:08:32.034Z,90.20
2019-02-07T21:11:01.270Z,90.10
2019-02-07T21:13:30.500Z,90.20
2019-02-07T21:15:59.739Z,90.10
2019-02-07T21:18:29.045Z,90.00
2019-02-07T21:20:58.303Z,90.30
2019-02-07T21:23:27.585Z,90.10
2019-02-07T21:25:56.867Z,89.80
2019-02-07T21:28:26.055Z,89.60
2019-02-07T21:30:55.311Z,89.80
2019-02-07T21:33:24.595Z,90.00
2019-02-07T21:35:53.772Z,90.50
2019-02-07T21:38:23.028Z,91.00
2019-02-07T21:40:52.581Z,92.10
2019-02-07T21:43:21.845Z,91.50
2019-02-07T21:45:51.027Z,91.40
2019-02-07T21:48:20.164Z,91.30
2019-02-07T21:50:49.440Z,91.40
2019-02-07T21:53:18.593Z,91.00
2019-02-07T21:55:47.790Z,90.90
2019-02-07T21:58:17.396Z,90.70
2019-02-07T22:00:47.154Z,90.50
2019-02-07T22:03:17.634Z,90.40
2019-02-07T22:05:46.880Z,90.60
2019-02-07T22:08:16.132Z,90.80
2019-02-07T22:10:45.440Z,90.70
2019-02-07T22:13:15.045Z,90.90
2019-02-07T22:15:44.244Z,90.40
2019-02-07T22:18:13.452Z,90.20
2019-02-07T22:20:42.820Z,89.50
2019-02-07T22:23:12.087Z,89.40
2019-02-07T22:25:41.280Z,90.00
2019-02-07T22:28:11.343Z,90.50
2019-02-07T22:30:40.628Z,91.00
2019-02-07T22:33:09.785Z,91.30
2019-02-07T22:35:39.236Z,91.20
2019-02-07T22:38:09.185Z,91.20
2019-02-07T22:40:38.341Z,90.70
2019-02-07T22:43:07.992Z,90.90
2019-02-07T22:45:37.228Z,91.00
2019-02-07T22:48:07.211Z,90.80
2019-02-07T22:50:36.369Z,90.80
2019-02-07T22:53:05.889Z,90.70
2019-02-07T22:55:35.112Z,90.90
2019-02-07T22:58:06.240Z,90.60
2019-02-07T23:01:20.785Z,90.20
2019-02-07T23:03:55.466Z,90.10
2019-02-07T23:06:24.619Z,90.40
2019-02-07T23:08:53.815Z,90.80
2019-02-07T23:11:23.273Z,91.00
2019-02-07T23:13:52.474Z,90.70
2019-02-07T23:16:21.648Z,90.30
2019-02-07T23:18:50.805Z,90.20
2019-02-07T23:21:19.935Z,89.60
2019-02-07T23:23:49.357Z,88.80
2019-02-07T23:26:18.500Z,88.80
2019-02-07T23:28:47.695Z,88.70
2019-02-07T23:31:16.869Z,88.20
2019-02-07T23:33:46.504Z,88.40
2019-02-07T23:36:15.645Z,89.00
2019-02-07T23:38:44.788Z,89.30
2019-02-07T23:41:13.989Z,89.70
2019-02-07T23:43:46.235Z,90.10
2019-02-07T23:46:14.184Z,89.90
2019-02-07T23:48:43.925Z,89.80
2019-02-07T23:51:13.203Z,90.00
2019-02-07T23:53:42.390Z,90.20
2019-02-07T23:56:11.595Z,90.40
2019-02-07T23:58:40.831Z,90.40
